Time;durP1;ratioP1;P1;durP2;ratioP2;P2;SDS_P1;SDS_P2;PMS_P1;PMS_P2;Temp;Humidity;BMP_temperature;BMP_pressure;BME280_temperature;BME280_humidity;BME280_pressure;Samples;Min_cycle;Max_cycle;Signal;HPM_P1;HPM_P2
2022/08/20 00:00:19;;;;;;;14.13;8.57;;;22.20;80.50;;;;;;5115107;28;20032;-73
2022/08/20 00:02:51;;;;;;;14.38;7.38;;;22.30;80.50;;;;;;5114090;28;20020;-73
2022/08/20 00:05:25;;;;;;;13.93;7.28;;;22.20;80.50;;;;;;5115038;28;20360;-73
2022/08/20 00:07:51;;;;;;;13.48;7.28;;;22.20;80.50;;;;;;5115008;28;20024;-73
2022/08/20 00:10:17;;;;;;;10.60;6.35;;;22.20;80.60;;;;;;5114633;28;20048;-73
2022/08/20 00:12:45;;;;;;;12.45;6.68;;;22.20;80.50;;;;;;5114837;28;20028;-73
2022/08/20 00:15:12;;;;;;;12.43;6.85;;;22.10;80.60;;;;;;5114789;28;20024;-73
2022/08/20 00:17:38;;;;;;;12.43;6.60;;;22.10;80.70;;;;;;5114743;28;20024;-73
2022/08/20 00:20:08;;;;;;;11.13;6.93;;;22.10;81.60;;;;;;5114730;28;20394;-73
2022/08/20 00:22:34;;;;;;;10.55;6.15;;;22.00;80.90;;;;;;5114793;28;20027;-73
2022/08/20 00:24:59;;;;;;;13.32;6.72;;;22.10;81.10;;;;;;5114602;28;20020;-73
2022/08/20 00:27:25;;;;;;;12.27;5.82;;;22.10;81.10;;;;;;5114495;28;20028;-73
2022/08/20 00:29:51;;;;;;;13.50;6.85;;;22.00;80.90;;;;;;5114372;28;20039;-73
2022/08/20 00:32:16;;;;;;;10.93;6.10;;;22.00;80.90;;;;;;5114451;28;20046;-73
2022/08/20 00:34:42;;;;;;;12.13;5.85;;;21.90;80.80;;;;;;5114424;28;20025;-73
2022/08/20 00:37:08;;;;;;;10.43;6.18;;;21.90;80.80;;;;;;5114403;28;20024;-73
2022/08/20 00:39:34;;;;;;;12.50;6.25;;;21.80;80.70;;;;;;5114385;28;20100;-73
2022/08/20 00:42:00;;;;;;;8.35;5.32;;;21.80;80.80;;;;;;5114291;28;20441;-73
2022/08/20 00:44:25;;;;;;;13.00;5.60;;;21.70;80.60;;;;;;5113411;28;20028;-73
2022/08/20 00:46:52;;;;;;;10.88;5.20;;;21.70;80.70;;;;;;5114227;28;20032;-73
2022/08/20 00:49:26;;;;;;;10.07;5.50;;;21.60;80.80;;;;;;5114072;28;20028;-73
2022/08/20 00:52:04;;;;;;;10.82;5.95;;;21.60;80.90;;;;;;5114201;28;20024;-73
2022/08/20 00:54:36;;;;;;;9.25;5.55;;;21.60;81.00;;;;;;5114135;28;20103;-73
2022/08/20 00:57:08;;;;;;;12.25;6.68;;;21.60;81.20;;;;;;5114032;28;20074;-73
2022/08/20 00:59:36;;;;;;;11.48;6.10;;;21.50;81.30;;;;;;5114050;28;20050;-73
2022/08/20 01:02:04;;;;;;;11.15;6.47;;;21.50;81.40;;;;;;5113835;28;20024;-73
2022/08/20 01:04:32;;;;;;;10.05;6.22;;;21.50;81.60;;;;;;5113849;28;20115;-73
2022/08/20 01:06:58;;;;;;;9.45;6.32;;;21.50;81.70;;;;;;5113889;28;20078;-73
2022/08/20 01:09:25;;;;;;;12.70;7.25;;;21.50;81.70;;;;;;5113603;28;20056;-73
2022/08/20 01:11:50;;;;;;;14.23;7.18;;;21.50;81.70;;;;;;5112783;28;20023;-73
2022/08/20 01:16:55;;;;;;;13.52;6.63;;;21.40;82.00;;;;;;5114062;28;20024;-73
2022/08/20 01:19:28;;;;;;;13.88;6.47;;;21.40;82.10;;;;;;5113822;28;20020;-73
2022/08/20 01:21:54;;;;;;;13.27;7.15;;;21.40;82.20;;;;;;5113734;28;20051;-73
2022/08/20 01:24:28;;;;;;;12.90;7.28;;;21.40;82.40;;;;;;5112636;28;20046;-73
2022/08/20 01:26:55;;;;;;;13.57;7.25;;;21.40;82.50;;;;;;5112733;28;20050;-73
2022/08/20 01:29:26;;;;;;;14.32;7.25;;;21.40;82.40;;;;;;5112566;28;20028;-73
2022/08/20 01:31:52;;;;;;;12.05;6.75;;;21.40;82.40;;;;;;5112608;28;20016;-73
2022/08/20 01:34:20;;;;;;;10.45;6.70;;;21.50;82.30;;;;;;5113515;28;20031;-73
2022/08/20 01:36:49;;;;;;;16.58;7.72;;;21.40;82.20;;;;;;5113507;28;20032;-73
2022/08/20 01:39:23;;;;;;;15.25;7.22;;;21.50;82.20;;;;;;5113463;28;20028;-73
2022/08/20 01:42:11;;;;;;;13.35;6.43;;;21.50;82.20;;;;;;5113670;28;20023;-73
2022/08/20 01:44:39;;;;;;;11.82;6.85;;;21.50;82.10;;;;;;5113467;28;20028;-73
2022/08/20 01:47:12;;;;;;;10.57;6.68;;;21.50;82.40;;;;;;5113452;28;20028;-73
2022/08/20 01:49:42;;;;;;;11.88;6.90;;;21.40;82.70;;;;;;5113492;28;20086;-72
2022/08/20 01:52:13;;;;;;;12.18;6.38;;;21.50;82.50;;;;;;5113416;28;20023;-73
2022/08/20 01:54:39;;;;;;;11.63;6.50;;;21.50;82.30;;;;;;5113384;28;20012;-73
2022/08/20 01:57:17;;;;;;;12.20;7.05;;;21.50;82.30;;;;;;5113307;28;20024;-73
2022/08/20 01:59:43;;;;;;;10.32;5.88;;;21.60;82.10;;;;;;5113467;28;20024;-73
2022/08/20 02:02:11;;;;;;;12.43;6.05;;;21.60;82.00;;;;;;5113287;28;20091;-73
2022/08/20 02:04:37;;;;;;;10.30;6.75;;;21.70;82.00;;;;;;5113233;28;20017;-73
2022/08/20 02:07:05;;;;;;;11.07;6.93;;;21.70;82.00;;;;;;5113225;28;20024;-73
2022/08/20 02:09:38;;;;;;;11.70;6.45;;;21.70;81.90;;;;;;5112935;28;20051;-73
2022/08/20 02:12:07;;;;;;;12.85;6.90;;;21.70;82.20;;;;;;5113238;28;20403;-73
2022/08/20 02:14:34;;;;;;;12.40;6.70;;;21.70;81.70;;;;;;5116964;28;20070;-73
2022/08/20 02:17:00;;;;;;;11.77;6.82;;;21.70;81.60;;;;;;5117137;28;20020;-73
2022/08/20 02:19:37;;;;;;;11.65;7.00;;;21.60;81.90;;;;;;5117062;28;20028;-73
2022/08/20 02:22:27;;;;;;;11.77;6.90;;;21.60;82.20;;;;;;5117237;28;20024;-73
2022/08/20 02:24:52;;;;;;;11.73;7.15;;;21.70;82.30;;;;;;5116998;28;20024;-73
2022/08/20 02:27:22;;;;;;;12.30;6.50;;;21.70;82.10;;;;;;5116883;28;20036;-73
2022/08/20 02:29:48;;;;;;;12.65;6.93;;;21.70;81.80;;;;;;5116723;28;20031;-73
2022/08/20 02:32:14;;;;;;;11.70;7.15;;;21.70;81.60;;;;;;5116856;28;20017;-73
2022/08/20 02:34:40;;;;;;;11.30;6.57;;;21.60;81.60;;;;;;5116797;28;20437;-73
2022/08/20 02:37:06;;;;;;;11.27;6.47;;;21.50;81.80;;;;;;5116862;28;20094;-73
2022/08/20 02:39:32;;;;;;;12.50;6.95;;;21.50;82.10;;;;;;5116707;28;20043;-73
2022/08/20 02:41:57;;;;;;;12.88;7.07;;;21.50;82.20;;;;;;5115613;28;20032;-73
2022/08/20 02:44:23;;;;;;;9.77;5.70;;;21.50;82.10;;;;;;5116633;28;20048;-73
2022/08/20 02:46:49;;;;;;;11.27;7.10;;;21.50;82.00;;;;;;5116565;28;20506;-73
2022/08/20 02:49:16;;;;;;;12.82;6.95;;;21.50;82.20;;;;;;5116448;28;20490;-73
2022/08/20 02:51:43;;;;;;;11.45;6.70;;;21.50;82.50;;;;;;5116473;28;20379;-73
2022/08/20 02:54:10;;;;;;;11.65;6.88;;;21.50;82.40;;;;;;5116376;28;20077;-73
2022/08/20 02:56:36;;;;;;;12.93;6.63;;;21.50;82.40;;;;;;5116355;28;20027;-73
2022/08/20 02:59:02;;;;;;;13.55;7.28;;;21.50;82.40;;;;;;5116344;28;20356;-73
2022/08/20 03:01:29;;;;;;;12.10;6.78;;;21.50;82.40;;;;;;5116249;28;20024;-73
2022/08/20 03:03:57;;;;;;;11.30;7.03;;;21.50;82.40;;;;;;5115306;28;20028;-73
2022/08/20 03:06:24;;;;;;;13.73;6.93;;;21.40;82.60;;;;;;5116167;28;20035;-73
2022/08/20 03:08:50;;;;;;;14.65;7.35;;;21.50;82.80;;;;;;5115862;28;20039;-73
2022/08/20 03:11:17;;;;;;;11.63;6.78;;;21.60;82.80;;;;;;5116263;28;20091;-73
2022/08/20 03:13:43;;;;;;;12.13;6.72;;;21.60;82.70;;;;;;5116052;28;20054;-73
2022/08/20 03:16:09;;;;;;;11.63;7.07;;;21.60;82.70;;;;;;5116012;28;20020;-73
2022/08/20 03:18:40;;;;;;;12.18;7.07;;;21.60;82.70;;;;;;5115953;28;20077;-73
2022/08/20 03:21:07;;;;;;;12.63;7.60;;;21.60;82.60;;;;;;5114970;28;20016;-73
2022/08/20 03:23:34;;;;;;;13.30;7.65;;;21.60;82.50;;;;;;5115506;28;20020;-73
2022/08/20 03:26:01;;;;;;;14.07;8.20;;;21.60;82.60;;;;;;5114822;28;20390;-73
2022/08/20 03:28:27;;;;;;;14.02;7.55;;;21.60;82.60;;;;;;5115614;28;20031;-73
2022/08/20 03:30:55;;;;;;;12.40;7.53;;;21.60;82.80;;;;;;5115633;28;20035;-73
2022/08/20 03:33:21;;;;;;;12.73;7.65;;;21.60;82.90;;;;;;5115661;28;20020;-73
2022/08/20 03:35:47;;;;;;;14.15;7.70;;;21.60;82.90;;;;;;5115609;28;20047;-73
2022/08/20 03:38:16;;;;;;;12.85;7.50;;;21.60;82.60;;;;;;5115566;28;20024;-74
2022/08/20 03:40:42;;;;;;;15.90;8.18;;;21.60;82.40;;;;;;5115547;28;20027;-73
2022/08/20 03:43:08;;;;;;;13.82;8.88;;;21.50;82.40;;;;;;5115453;28;20046;-73
2022/08/20 03:45:37;;;;;;;14.30;7.93;;;21.60;83.50;;;;;;5115397;28;20061;-73
2022/08/20 03:48:06;;;;;;;14.57;8.68;;;21.50;82.50;;;;;;5115334;28;20035;-73
2022/08/20 03:50:32;;;;;;;15.38;8.80;;;21.50;82.70;;;;;;5114247;28;20035;-73
2022/08/20 03:52:58;;;;;;;15.38;8.38;;;21.40;83.10;;;;;;5115272;28;20048;-73
2022/08/20 03:55:26;;;;;;;14.93;8.52;;;21.30;83.50;;;;;;5115237;28;20083;-73
2022/08/20 03:57:54;;;;;;;15.48;8.07;;;21.40;83.60;;;;;;5115198;28;20024;-73
2022/08/20 04:00:25;;;;;;;15.35;8.65;;;21.50;83.50;;;;;;5114158;28;20020;-73
2022/08/20 04:02:51;;;;;;;16.83;9.13;;;21.40;83.20;;;;;;5115088;28;20027;-73
2022/08/20 04:05:17;;;;;;;15.95;9.32;;;21.40;83.20;;;;;;5115164;28;20472;-73
2022/08/20 04:07:43;;;;;;;14.23;7.88;;;21.40;83.20;;;;;;5114999;28;20084;-73
2022/08/20 04:10:10;;;;;;;20.08;9.82;;;21.40;83.30;;;;;;5114559;28;20070;-73
2022/08/20 04:12:40;;;;;;;15.32;8.48;;;21.30;83.30;;;;;;5114853;28;20048;-73
2022/08/20 04:15:11;;;;;;;18.20;9.25;;;21.30;83.30;;;;;;5113934;28;20032;-73
2022/08/20 04:17:40;;;;;;;16.38;8.88;;;21.30;83.40;;;;;;5114774;28;20013;-73
2022/08/20 04:20:08;;;;;;;17.80;9.65;;;21.30;83.40;;;;;;5114727;28;20050;-73
2022/08/20 04:22:34;;;;;;;16.00;9.65;;;21.30;83.50;;;;;;5113686;28;20028;-73
2022/08/20 04:24:59;;;;;;;17.95;8.65;;;21.30;83.50;;;;;;5113598;28;20024;-73
2022/08/20 04:27:25;;;;;;;16.33;8.55;;;21.30;83.70;;;;;;5114561;28;20093;-73
2022/08/20 04:29:51;;;;;;;15.43;8.60;;;21.30;83.70;;;;;;5114415;28;20039;-73
2022/08/20 04:32:16;;;;;;;16.08;9.38;;;21.30;83.70;;;;;;5113633;28;20044;-73
2022/08/20 04:34:43;;;;;;;18.65;9.23;;;21.30;83.70;;;;;;5114451;28;20028;-73
2022/08/20 04:37:10;;;;;;;17.50;10.00;;;21.20;83.60;;;;;;5114009;28;20028;-73
2022/08/20 04:39:36;;;;;;;18.27;10.07;;;21.20;83.60;;;;;;5114403;28;20020;-73
2022/08/20 04:42:01;;;;;;;18.98;10.15;;;21.20;83.60;;;;;;5114337;28;20032;-73
2022/08/20 04:44:27;;;;;;;18.92;10.13;;;21.20;83.60;;;;;;5114291;28;20032;-73
2022/08/20 04:46:53;;;;;;;19.25;10.32;;;21.20;83.50;;;;;;5114302;28;20027;-73
2022/08/20 04:49:21;;;;;;;20.05;10.00;;;21.20;83.50;;;;;;5113146;28;20032;-73
2022/08/20 04:51:47;;;;;;;19.77;10.70;;;21.20;83.50;;;;;;5114129;28;20036;-73
2022/08/20 04:54:13;;;;;;;19.35;10.70;;;21.20;83.50;;;;;;5114260;28;20046;-73
2022/08/20 04:56:38;;;;;;;19.98;10.60;;;21.30;83.60;;;;;;5114101;28;20046;-73
2022/08/20 04:59:06;;;;;;;21.10;11.65;;;21.30;83.60;;;;;;5114073;28;20027;-73
2022/08/20 05:01:32;;;;;;;18.77;10.32;;;21.30;83.50;;;;;;5113969;28;20020;-73
2022/08/20 05:03:58;;;;;;;20.67;11.38;;;21.30;83.50;;;;;;5113971;28;20063;-73
2022/08/20 05:06:27;;;;;;;25.58;11.85;;;21.30;83.50;;;;;;5114092;28;20058;-73
2022/08/20 05:08:54;;;;;;;22.17;11.57;;;21.20;83.50;;;;;;5113826;28;20035;-73
2022/08/20 05:11:22;;;;;;;22.50;11.43;;;21.20;83.50;;;;;;5113855;28;20364;-73
2022/08/20 05:13:47;;;;;;;27.88;12.55;;;21.20;83.60;;;;;;5113782;28;20031;-73
2022/08/20 05:16:16;;;;;;;22.25;11.70;;;21.20;83.70;;;;;;5113780;28;20032;-73
2022/08/20 05:18:43;;;;;;;23.80;12.00;;;21.20;84.70;;;;;;5113765;28;20008;-73
2022/08/20 05:21:09;;;;;;;26.17;12.25;;;21.10;83.80;;;;;;5113727;28;20055;-73
2022/08/20 05:23:39;;;;;;;26.73;12.43;;;21.10;84.70;;;;;;5113671;28;20024;-73
2022/08/20 05:26:06;;;;;;;25.25;12.20;;;21.20;83.90;;;;;;5113729;28;20020;-73
2022/08/20 05:28:32;;;;;;;24.95;12.45;;;21.10;84.10;;;;;;5113547;28;20016;-73
2022/08/20 05:31:00;;;;;;;24.88;13.05;;;21.10;84.10;;;;;;5113537;28;20028;-73
2022/08/20 05:33:27;;;;;;;24.15;12.60;;;21.20;84.10;;;;;;5113582;28;20103;-73
2022/08/20 05:35:53;;;;;;;27.27;12.18;;;21.10;84.10;;;;;;5113542;28;20046;-73
2022/08/20 05:38:23;;;;;;;28.60;13.55;;;21.10;84.00;;;;;;5113498;28;20024;-73
2022/08/20 05:40:49;;;;;;;35.10;14.80;;;21.10;84.00;;;;;;5113572;28;20024;-73
2022/08/20 05:43:16;;;;;;;30.55;13.90;;;21.10;84.10;;;;;;5113571;28;20027;-73
2022/08/20 05:45:44;;;;;;;32.13;15.27;;;21.00;84.00;;;;;;5113505;28;20031;-73
2022/08/20 05:48:21;;;;;;;31.13;15.25;;;21.00;84.40;;;;;;5114942;28;20024;-73
2022/08/20 05:50:49;;;;;;;31.10;15.32;;;21.00;84.60;;;;;;5117588;28;20024;-73
2022/08/20 05:53:16;;;;;;;31.30;15.93;;;21.00;84.90;;;;;;5117572;28;20032;-73
2022/08/20 05:55:44;;;;;;;33.00;16.65;;;21.00;84.90;;;;;;5117570;28;20078;-73
2022/08/20 05:58:17;;;;;;;30.45;16.20;;;20.90;84.90;;;;;;5117527;28;20094;-73
2022/08/20 06:00:43;;;;;;;34.63;16.30;;;21.00;85.10;;;;;;5117486;28;20028;-73
2022/08/20 06:05:53;;;;;;;44.88;17.38;;;20.90;85.20;;;;;;5117628;28;20046;-73
2022/08/20 06:08:19;;;;;;;38.47;16.67;;;20.80;85.20;;;;;;5117273;28;20044;-73
2022/08/20 06:10:45;;;;;;;32.42;16.55;;;20.80;85.40;;;;;;5116994;28;20460;-73
2022/08/20 06:13:10;;;;;;;33.10;16.63;;;20.80;85.40;;;;;;5117192;28;20086;-73
2022/08/20 06:15:36;;;;;;;36.58;17.13;;;20.90;85.30;;;;;;5117184;28;20024;-73
2022/08/20 06:18:06;;;;;;;38.05;17.38;;;20.80;85.10;;;;;;5117131;28;20024;-73
2022/08/20 06:20:33;;;;;;;38.30;17.45;;;20.90;85.20;;;;;;5117175;28;20036;-74
2022/08/20 06:22:59;;;;;;;39.58;18.25;;;20.80;85.30;;;;;;5117021;28;20058;-73
2022/08/20 06:25:25;;;;;;;39.25;17.80;;;20.90;85.20;;;;;;5117007;28;20527;-74
2022/08/20 06:27:50;;;;;;;36.05;17.63;;;20.80;85.20;;;;;;5116964;28;20048;-73
2022/08/20 06:30:16;;;;;;;36.05;17.10;;;20.80;85.40;;;;;;5116814;28;20028;-73
2022/08/20 06:32:42;;;;;;;42.50;18.90;;;20.80;85.40;;;;;;5116865;28;20088;-73
2022/08/20 06:35:09;;;;;;;40.60;18.50;;;20.80;85.60;;;;;;5116813;28;20050;-73
2022/08/20 06:37:37;;;;;;;35.03;16.65;;;20.80;85.40;;;;;;5116769;28;20040;-73
2022/08/20 06:40:07;;;;;;;37.85;17.27;;;20.80;85.30;;;;;;5116624;28;20020;-73
2022/08/20 06:42:33;;;;;;;38.60;18.35;;;20.80;85.20;;;;;;5116732;28;20023;-73
2022/08/20 06:45:03;;;;;;;35.17;17.77;;;20.80;85.30;;;;;;5116604;28;20020;-73
2022/08/20 06:47:31;;;;;;;37.65;17.38;;;20.80;85.30;;;;;;5116524;28;20016;-73
2022/08/20 06:49:57;;;;;;;33.80;17.83;;;20.80;85.10;;;;;;5116460;28;20032;-73
2022/08/20 06:52:23;;;;;;;31.90;17.05;;;20.70;85.40;;;;;;5116455;28;20016;-73
2022/08/20 06:54:48;;;;;;;34.05;17.48;;;20.70;85.60;;;;;;5116421;28;20016;-74
2022/08/20 06:57:14;;;;;;;33.90;17.20;;;20.70;86.00;;;;;;5116407;28;20016;-73
2022/08/20 06:59:40;;;;;;;37.90;17.73;;;20.70;85.90;;;;;;5115962;28;20032;-73
2022/08/20 07:02:06;;;;;;;31.90;17.15;;;20.80;86.00;;;;;;5116295;28;20028;-74
2022/08/20 07:04:32;;;;;;;39.10;17.80;;;20.80;86.30;;;;;;5098314;28;20479;-74
2022/08/20 07:06:58;;;;;;;33.28;16.73;;;20.90;87.20;;;;;;5115241;28;20082;-73
2022/08/20 07:09:25;;;;;;;33.15;17.15;;;20.90;85.90;;;;;;5115871;28;20047;-73
2022/08/20 07:11:51;;;;;;;34.28;16.70;;;20.90;85.60;;;;;;5116047;28;20020;-73
2022/08/20 07:14:17;;;;;;;31.40;16.98;;;20.90;85.50;;;;;;5116196;28;20024;-73
2022/08/20 07:16:43;;;;;;;30.85;16.48;;;20.90;85.40;;;;;;5115074;28;20073;-73
2022/08/20 07:19:09;;;;;;;30.25;15.48;;;20.90;85.20;;;;;;5115969;28;20032;-73
2022/08/20 07:21:35;;;;;;;28.75;16.45;;;20.90;85.10;;;;;;5115904;28;20034;-73
2022/08/20 07:24:00;;;;;;;32.05;15.77;;;21.00;84.90;;;;;;5115840;28;20028;-73
2022/08/20 07:26:26;;;;;;;27.80;15.27;;;21.10;85.90;;;;;;5115802;28;20030;-73
2022/08/20 07:28:53;;;;;;;29.63;15.68;;;21.10;84.90;;;;;;5115701;28;20088;-73
2022/08/20 07:34:03;;;;;;;27.88;15.43;;;21.00;84.50;;;;;;5115736;28;20035;-74
2022/08/20 07:36:29;;;;;;;31.40;15.48;;;21.00;85.00;;;;;;5115631;28;20021;-73
2022/08/20 07:38:55;;;;;;;29.08;14.52;;;20.80;84.70;;;;;;5115592;28;20024;-73
2022/08/20 07:41:21;;;;;;;30.73;15.32;;;20.90;85.00;;;;;;5115522;28;20050;-73
2022/08/20 07:43:47;;;;;;;27.30;14.88;;;20.90;85.10;;;;;;5115474;28;20020;-73
2022/08/20 07:46:16;;;;;;;25.10;14.15;;;21.00;85.30;;;;;;5115409;28;20028;-73
2022/08/20 07:48:48;;;;;;;31.60;14.80;;;20.90;85.00;;;;;;5115312;28;20020;-74
2022/08/20 07:51:16;;;;;;;27.60;14.57;;;21.00;85.30;;;;;;5115347;28;20020;-73
2022/08/20 07:53:43;;;;;;;27.63;14.32;;;21.00;85.30;;;;;;5115278;28;20012;-73
2022/08/20 07:56:11;;;;;;;25.10;13.82;;;21.10;85.60;;;;;;5115207;28;20036;-73
2022/08/20 07:58:48;;;;;;;26.20;14.20;;;21.10;85.40;;;;;;5115081;28;20020;-73
2022/08/20 08:01:24;;;;;;;31.02;13.88;;;21.20;85.20;;;;;;5115210;28;20046;-73
2022/08/20 08:03:49;;;;;;;26.40;13.65;;;21.20;85.20;;;;;;5115271;28;20016;-73
2022/08/20 08:06:18;;;;;;;25.63;14.30;;;21.30;85.20;;;;;;5115178;28;20034;-73
2022/08/20 08:08:43;;;;;;;28.63;13.98;;;21.40;85.40;;;;;;5114930;28;20024;-73
2022/08/20 08:11:10;;;;;;;24.23;12.65;;;21.50;84.70;;;;;;5114210;28;20052;-73
2022/08/20 08:13:39;;;;;;;25.55;13.13;;;21.60;84.10;;;;;;5115024;28;20024;-73
2022/08/20 08:16:06;;;;;;;25.42;13.48;;;21.70;83.80;;;;;;5113811;28;20085;-73
2022/08/20 08:18:40;;;;;;;22.02;12.20;;;21.70;83.00;;;;;;5114842;28;20027;-74
2022/08/20 08:21:08;;;;;;;24.27;12.80;;;21.70;82.50;;;;;;5114886;28;20031;-73
2022/08/20 08:23:34;;;;;;;21.33;12.82;;;21.80;82.60;;;;;;5114753;28;20074;-73
2022/08/20 08:26:01;;;;;;;17.52;11.05;;;21.90;82.30;;;;;;5114669;28;20078;-73
2022/08/20 08:28:28;;;;;;;15.20;9.48;;;22.00;81.50;;;;;;5114529;28;20031;-73
2022/08/20 08:30:54;;;;;;;12.98;7.50;;;22.00;80.30;;;;;;5114505;28;20028;-73
2022/08/20 08:33:29;;;;;;;10.23;6.18;;;22.10;79.40;;;;;;5114652;28;20080;-73
2022/08/20 08:36:02;;;;;;;9.32;6.95;;;22.20;78.00;;;;;;5114511;28;20028;-73
2022/08/20 08:38:30;;;;;;;10.82;6.57;;;22.40;77.40;;;;;;5114460;28;20084;-73
2022/08/20 08:41:00;;;;;;;11.30;7.50;;;22.40;75.90;;;;;;5114395;28;20073;-73
2022/08/20 08:43:26;;;;;;;15.50;7.10;;;22.40;75.00;;;;;;5114364;28;20115;-74
2022/08/20 08:46:00;;;;;;;8.32;5.13;;;22.30;74.40;;;;;;5114274;28;20027;-73
2022/08/20 08:48:34;;;;;;;10.48;5.15;;;22.40;73.70;;;;;;5114299;28;20035;-73
2022/08/20 08:51:03;;;;;;;10.35;5.53;;;22.40;73.30;;;;;;5114267;28;20379;-73
2022/08/20 08:53:35;;;;;;;8.43;5.45;;;22.50;73.90;;;;;;5114271;28;20042;-73
2022/08/20 08:56:02;;;;;;;10.90;5.93;;;22.60;73.10;;;;;;5114131;28;20021;-73
2022/08/20 08:58:27;;;;;;;8.35;5.57;;;22.70;72.60;;;;;;5114057;28;20016;-73
2022/08/20 09:00:53;;;;;;;8.32;4.40;;;22.80;73.10;;;;;;5114011;28;20038;-73
2022/08/20 09:03:32;;;;;;;7.65;3.80;;;22.80;71.80;;;;;;5113985;28;20028;-73
2022/08/20 09:06:00;;;;;;;7.95;3.83;;;22.80;71.70;;;;;;5114133;28;20024;-73
2022/08/20 09:08:35;;;;;;;6.57;4.40;;;22.80;71.80;;;;;;5113928;28;20020;-73
2022/08/20 09:11:03;;;;;;;4.95;3.60;;;22.70;70.30;;;;;;5113776;28;20047;-73
2022/08/20 09:13:29;;;;;;;11.25;4.45;;;22.60;70.50;;;;;;5113820;28;20012;-73
2022/08/20 09:15:55;;;;;;;5.40;3.33;;;22.70;70.30;;;;;;5113794;28;20055;-74
2022/08/20 09:18:20;;;;;;;6.60;3.13;;;22.80;70.00;;;;;;5113909;28;20024;-73
2022/08/20 09:20:46;;;;;;;6.25;3.13;;;22.90;69.10;;;;;;5113746;28;20036;-73
2022/08/20 09:23:12;;;;;;;5.43;2.80;;;23.00;68.50;;;;;;5113790;28;20054;-73
2022/08/20 09:25:37;;;;;;;6.43;2.88;;;23.00;67.40;;;;;;5113673;28;20039;-73
2022/08/20 09:28:03;;;;;;;5.07;2.70;;;22.90;66.80;;;;;;5113567;28;20016;-73
2022/08/20 09:30:29;;;;;;;7.28;3.55;;;22.90;66.90;;;;;;5113564;28;20031;-74
2022/08/20 09:32:58;;;;;;;3.83;2.78;;;22.90;65.80;;;;;;5113595;28;20384;-73
2022/08/20 09:35:24;;;;;;;6.90;3.85;;;22.90;66.00;;;;;;5113560;28;20107;-74
2022/08/20 09:37:51;;;;;;;9.23;4.68;;;23.10;66.40;;;;;;5113511;28;20024;-74
2022/08/20 09:40:18;;;;;;;9.30;4.78;;;23.20;66.80;;;;;;5113508;28;20026;-74
2022/08/20 09:42:44;;;;;;;7.70;4.40;;;23.10;66.30;;;;;;5113456;28;20073;-74
2022/08/20 09:45:11;;;;;;;8.27;4.75;;;22.90;65.30;;;;;;5112489;28;20028;-74
2022/08/20 09:47:37;;;;;;;7.85;4.40;;;22.80;67.00;;;;;;5112376;28;20030;-74
2022/08/20 09:50:03;;;;;;;8.35;3.13;;;22.90;67.00;;;;;;5113322;28;20032;-74
2022/08/20 09:52:32;;;;;;;6.07;2.42;;;23.10;64.70;;;;;;5113393;28;20383;-74
2022/08/20 09:55:06;;;;;;;7.53;3.47;;;23.30;63.60;;;;;;5113359;28;20023;-74
2022/08/20 09:57:33;;;;;;;6.30;2.63;;;23.50;62.10;;;;;;5113393;28;20020;-74
2022/08/20 10:00:11;;;;;;;7.50;3.22;;;23.50;62.50;;;;;;5113510;28;20024;-74
2022/08/20 10:02:37;;;;;;;6.30;3.33;;;23.40;62.30;;;;;;5113331;28;20020;-74
2022/08/20 10:05:03;;;;;;;7.13;3.10;;;23.40;62.80;;;;;;5113295;28;20028;-74
2022/08/20 10:07:29;;;;;;;10.00;3.90;;;23.30;62.80;;;;;;5113212;28;20039;-75
2022/08/20 10:09:55;;;;;;;7.22;3.78;;;23.30;63.80;;;;;;5112998;28;20070;-74
2022/08/20 10:12:21;;;;;;;5.93;4.00;;;23.20;64.50;;;;;;5113224;28;20084;-74
2022/08/20 10:14:46;;;;;;;7.80;3.58;;;23.20;63.70;;;;;;5113219;28;20028;-74
2022/08/20 10:17:12;;;;;;;8.20;2.90;;;23.30;63.90;;;;;;5113296;28;20044;-74
2022/08/20 10:19:38;;;;;;;6.05;3.20;;;23.20;63.50;;;;;;5113107;28;20032;-74
2022/08/20 10:22:04;;;;;;;7.25;2.97;;;23.20;63.20;;;;;;5113140;28;20036;-74
2022/08/20 10:24:30;;;;;;;6.72;2.83;;;23.20;61.40;;;;;;5113144;28;20040;-74
2022/08/20 10:26:58;;;;;;;7.10;3.15;;;23.30;60.70;;;;;;5113245;28;20024;-74
2022/08/20 10:29:25;;;;;;;6.93;3.22;;;23.30;60.50;;;;;;5112961;28;20024;-74
2022/08/20 10:31:52;;;;;;;8.45;3.60;;;23.40;61.20;;;;;;5112189;28;20028;-74
2022/08/20 10:34:18;;;;;;;7.82;2.72;;;23.50;60.60;;;;;;5113661;28;20035;-74
2022/08/20 10:36:43;;;;;;;6.97;2.45;;;23.60;58.60;;;;;;5116812;28;20024;-74
2022/08/20 10:39:09;;;;;;;7.20;2.35;;;23.80;60.00;;;;;;5116926;28;20032;-74
2022/08/20 10:41:35;;;;;;;7.30;2.35;;;24.00;57.60;;;;;;5116723;28;20024;-74
2022/08/20 10:44:02;;;;;;;6.90;2.15;;;24.10;57.90;;;;;;5116667;28;20032;-74
2022/08/20 10:46:27;;;;;;;6.45;2.20;;;24.30;56.90;;;;;;5116646;28;20040;-74
2022/08/20 10:48:53;;;;;;;5.57;1.98;;;24.30;56.10;;;;;;5116506;28;20036;-73
2022/08/20 10:51:19;;;;;;;8.75;2.40;;;24.30;55.90;;;;;;5116650;28;20091;-74
2022/08/20 10:53:44;;;;;;;7.88;2.05;;;24.40;55.80;;;;;;5116505;28;20050;-74
2022/08/20 10:56:10;;;;;;;5.63;2.65;;;24.40;54.40;;;;;;5116435;28;20029;-74
2022/08/20 10:58:35;;;;;;;6.68;1.80;;;24.50;54.00;;;;;;5116398;28;20055;-74
2022/08/20 11:01:01;;;;;;;4.32;1.73;;;24.60;53.90;;;;;;5116334;28;20387;-74
2022/08/20 11:03:27;;;;;;;5.18;2.03;;;24.60;51.10;;;;;;5116291;28;20035;-74
2022/08/20 11:05:52;;;;;;;8.85;2.42;;;24.60;51.90;;;;;;5116358;28;20028;-74
2022/08/20 11:08:18;;;;;;;8.13;2.20;;;24.50;51.80;;;;;;5116191;28;20050;-74
2022/08/20 11:10:43;;;;;;;8.10;2.20;;;24.50;51.80;;;;;;5116003;28;20048;-74
2022/08/20 11:13:11;;;;;;;6.60;2.00;;;24.40;51.80;;;;;;5116081;28;20031;-74
2022/08/20 11:15:40;;;;;;;6.63;2.58;;;24.40;52.20;;;;;;5115966;28;20050;-74
2022/08/20 11:18:07;;;;;;;7.55;2.25;;;24.40;52.50;;;;;;5115025;28;20032;-74
2022/08/20 11:20:33;;;;;;;9.63;1.90;;;24.50;52.20;;;;;;5115045;28;20024;-74
2022/08/20 11:22:59;;;;;;;5.40;1.95;;;24.60;52.40;;;;;;5115961;28;20024;-74
2022/08/20 11:25:26;;;;;;;5.10;1.90;;;24.60;53.20;;;;;;5115901;28;20028;-74
2022/08/20 11:27:53;;;;;;;8.93;2.13;;;24.60;51.70;;;;;;5115781;28;20049;-74
2022/08/20 11:30:26;;;;;;;5.93;1.70;;;24.70;50.70;;;;;;5115753;28;20035;-74
2022/08/20 11:32:52;;;;;;;6.00;1.95;;;24.80;51.40;;;;;;5115794;28;20020;-74
2022/08/20 11:35:20;;;;;;;4.30;1.70;;;24.90;52.20;;;;;;5114797;28;20039;-74
2022/08/20 11:37:46;;;;;;;4.63;1.92;;;25.20;51.20;;;;;;5115647;28;20016;-74
2022/08/20 11:40:12;;;;;;;6.85;1.70;;;25.40;51.10;;;;;;5115739;28;20535;-73
2022/08/20 11:42:38;;;;;;;5.63;1.67;;;25.50;48.60;;;;;;5114515;28;20084;-74
2022/08/20 11:45:05;;;;;;;4.40;1.63;;;25.50;46.50;;;;;;5114678;28;20020;-74
2022/08/20 11:47:34;;;;;;;6.10;1.80;;;25.50;45.60;;;;;;5114283;28;20493;-74
2022/08/20 11:50:08;;;;;;;5.32;1.70;;;25.30;46.10;;;;;;5115487;28;20024;-74
2022/08/20 11:52:34;;;;;;;7.03;1.88;;;25.20;46.60;;;;;;5114371;28;20531;-73
2022/08/20 11:55:00;;;;;;;6.25;1.90;;;25.20;46.60;;;;;;5115309;28;20020;-74
2022/08/20 11:57:30;;;;;;;4.45;1.83;;;25.30;46.40;;;;;;5115240;28;20032;-74
2022/08/20 11:59:58;;;;;;;5.40;1.83;;;25.40;48.40;;;;;;5115203;28;20045;-74
2022/08/20 12:02:24;;;;;;;4.28;1.63;;;25.50;46.80;;;;;;5114127;28;20016;-74
2022/08/20 12:04:49;;;;;;;6.70;2.05;;;25.70;46.80;;;;;;5115080;28;20028;-74
2022/08/20 12:07:18;;;;;;;6.53;1.80;;;25.80;46.90;;;;;;5115033;28;20028;-74
2022/08/20 12:09:45;;;;;;;5.60;1.70;;;25.90;45.70;;;;;;5113758;28;20040;-74
2022/08/20 12:12:10;;;;;;;4.20;1.58;;;26.00;45.00;;;;;;5114922;28;20020;-74
2022/08/20 12:14:36;;;;;;;5.22;1.70;;;26.20;44.90;;;;;;5114911;28;20074;-74
2022/08/20 12:17:20;;;;;;;8.77;1.90;;;26.30;43.80;;;;;;5114865;28;20092;-73
2022/08/20 12:19:46;;;;;;;4.88;1.80;;;26.30;42.40;;;;;;5114887;28;20045;-73
2022/08/20 12:22:11;;;;;;;6.75;1.60;;;26.40;43.10;;;;;;5114784;28;20048;-73
2022/08/20 12:24:37;;;;;;;5.40;1.73;;;26.50;42.90;;;;;;5114658;28;20055;-73
2022/08/20 12:27:12;;;;;;;7.05;1.70;;;26.40;41.60;;;;;;5114747;28;20020;-74
2022/08/20 12:29:39;;;;;;;5.60;1.77;;;26.30;41.40;;;;;;5114489;28;20081;-74
2022/08/20 12:32:06;;;;;;;7.97;1.60;;;26.30;41.80;;;;;;5113554;28;20459;-72
2022/08/20 12:34:36;;;;;;;5.72;1.55;;;26.30;41.80;;;;;;5096660;28;20016;-72
2022/08/20 12:37:14;;;;;;;6.60;2.15;;;26.40;42.20;;;;;;5113646;28;20028;-72
2022/08/20 12:39:42;;;;;;;6.07;1.75;;;26.40;41.80;;;;;;5114601;28;20031;-72
2022/08/20 12:42:09;;;;;;;4.82;1.52;;;26.30;40.60;;;;;;5114393;28;20024;-72
2022/08/20 12:44:36;;;;;;;7.35;1.70;;;26.30;41.10;;;;;;5113427;28;20103;-72
2022/08/20 12:47:27;;;;;;;6.18;1.60;;;26.40;41.20;;;;;;5114292;28;20031;-72